sensor_id;sensor_type;location;lat;lon;timestamp;temperature;humidity
27439;DHT22;14887;51.252;7.470;2023-08-17T00:01:55;16.80;99.90
27439;DHT22;14887;51.252;7.470;2023-08-17T00:04:20;16.80;99.90
27439;DHT22;14887;51.252;7.470;2023-08-17T00:06:46;16.80;99.90
27439;DHT22;14887;51.252;7.470;2023-08-17T00:09:12;16.80;99.90
27439;DHT22;14887;51.252;7.470;2023-08-17T00:11:38;16.80;99.90
27439;DHT22;14887;51.252;7.470;2023-08-17T00:14:04;16.70;99.90
27439;DHT22;14887;51.252;7.470;2023-08-17T00:16:31;16.70;99.90
27439;DHT22;14887;51.252;7.470;2023-08-17T00:18:57;16.70;99.90
27439;DHT22;14887;51.252;7.470;2023-08-17T00:21:23;16.70;99.90
27439;DHT22;14887;51.252;7.470;2023-08-17T00:23:48;16.70;99.90
27439;DHT22;14887;51.252;7.470;2023-08-17T00:26:14;16.60;99.90
27439;DHT22;14887;51.252;7.470;2023-08-17T00:28:40;16.60;99.90
27439;DHT22;14887;51.252;7.470;2023-08-17T00:31:06;16.60;99.90
27439;DHT22;14887;51.252;7.470;2023-08-17T00:33:31;16.50;99.90
27439;DHT22;14887;51.252;7.470;2023-08-17T00:35:57;16.50;99.90
27439;DHT22;14887;51.252;7.470;2023-08-17T00:38:23;16.50;99.90
27439;DHT22;14887;51.252;7.470;2023-08-17T00:40:48;16.50;99.90
27439;DHT22;14887;51.252;7.470;2023-08-17T00:43:14;16.50;99.90
27439;DHT22;14887;51.252;7.470;2023-08-17T00:45:40;16.50;99.90
27439;DHT22;14887;51.252;7.470;2023-08-17T00:48:06;16.50;99.90
27439;DHT22;14887;51.252;7.470;2023-08-17T00:50:34;16.50;99.90
27439;DHT22;14887;51.252;7.470;2023-08-17T00:53:01;16.40;99.90
27439;DHT22;14887;51.252;7.470;2023-08-17T00:55:27;16.30;99.90
27439;DHT22;14887;51.252;7.470;2023-08-17T00:57:53;16.30;99.90
27439;DHT22;14887;51.252;7.470;2023-08-17T01:00:21;16.30;99.90
27439;DHT22;14887;51.252;7.470;2023-08-17T01:02:47;16.30;99.90
27439;DHT22;14887;51.252;7.470;2023-08-17T01:05:13;16.20;99.90
27439;DHT22;14887;51.252;7.470;2023-08-17T01:07:39;16.20;99.90
27439;DHT22;14887;51.252;7.470;2023-08-17T01:10:06;16.20;99.90
27439;DHT22;14887;51.252;7.470;2023-08-17T01:15:21;16.10;99.90
27439;DHT22;14887;51.252;7.470;2023-08-17T01:20:40;15.80;99.90
27439;DHT22;14887;51.252;7.470;2023-08-17T01:23:07;15.90;99.90
27439;DHT22;14887;51.252;7.470;2023-08-17T01:25:33;16.00;99.90
27439;DHT22;14887;51.252;7.470;2023-08-17T01:28:02;15.90;99.90
27439;DHT22;14887;51.252;7.470;2023-08-17T01:30:28;15.90;99.90
27439;DHT22;14887;51.252;7.470;2023-08-17T01:33:03;15.90;99.90
27439;DHT22;14887;51.252;7.470;2023-08-17T01:35:44;15.80;99.90
27439;DHT22;14887;51.252;7.470;2023-08-17T01:38:18;15.80;99.90
27439;DHT22;14887;51.252;7.470;2023-08-17T01:40:46;15.90;99.90
27439;DHT22;14887;51.252;7.470;2023-08-17T01:43:13;15.90;99.90
27439;DHT22;14887;51.252;7.470;2023-08-17T01:45:39;15.80;99.90
27439;DHT22;14887;51.252;7.470;2023-08-17T01:48:05;15.80;99.90
27439;DHT22;14887;51.252;7.470;2023-08-17T01:50:31;15.90;99.90
27439;DHT22;14887;51.252;7.470;2023-08-17T01:52:56;15.90;99.90
27439;DHT22;14887;51.252;7.470;2023-08-17T01:55:22;16.00;99.90
27439;DHT22;14887;51.252;7.470;2023-08-17T01:57:52;16.00;99.90
27439;DHT22;14887;51.252;7.470;2023-08-17T02:00:18;16.00;99.90
27439;DHT22;14887;51.252;7.470;2023-08-17T02:02:43;15.90;99.90
27439;DHT22;14887;51.252;7.470;2023-08-17T02:05:09;15.90;99.90
27439;DHT22;14887;51.252;7.470;2023-08-17T02:07:35;15.80;99.90
27439;DHT22;14887;51.252;7.470;2023-08-17T02:10:00;15.90;99.90
27439;DHT22;14887;51.252;7.470;2023-08-17T02:12:26;15.80;99.90
27439;DHT22;14887;51.252;7.470;2023-08-17T02:14:51;15.90;99.90
27439;DHT22;14887;51.252;7.470;2023-08-17T02:17:18;16.00;99.90
27439;DHT22;14887;51.252;7.470;2023-08-17T02:19:45;15.90;99.90
27439;DHT22;14887;51.252;7.470;2023-08-17T02:22:10;15.80;99.90
27439;DHT22;14887;51.252;7.470;2023-08-17T02:24:36;15.90;99.90
27439;DHT22;14887;51.252;7.470;2023-08-17T02:27:02;15.90;99.90
27439;DHT22;14887;51.252;7.470;2023-08-17T02:29:27;15.90;99.90
27439;DHT22;14887;51.252;7.470;2023-08-17T02:31:53;15.90;99.90
27439;DHT22;14887;51.252;7.470;2023-08-17T02:34:19;15.80;99.90
27439;DHT22;14887;51.252;7.470;2023-08-17T02:36:44;15.80;99.90
27439;DHT22;14887;51.252;7.470;2023-08-17T02:39:10;15.70;99.90
27439;DHT22;14887;51.252;7.470;2023-08-17T02:41:35;15.80;99.90
27439;DHT22;14887;51.252;7.470;2023-08-17T02:44:01;15.90;99.90
27439;DHT22;14887;51.252;7.470;2023-08-17T02:46:27;15.90;99.90
27439;DHT22;14887;51.252;7.470;2023-08-17T02:48:53;15.90;99.90
27439;DHT22;14887;51.252;7.470;2023-08-17T02:51:20;15.90;99.90
27439;DHT22;14887;51.252;7.470;2023-08-17T02:53:45;15.90;99.90
27439;DHT22;14887;51.252;7.470;2023-08-17T02:56:11;16.00;99.90
27439;DHT22;14887;51.252;7.470;2023-08-17T02:58:38;16.00;99.90
27439;DHT22;14887;51.252;7.470;2023-08-17T03:01:07;16.10;99.90
27439;DHT22;14887;51.252;7.470;2023-08-17T03:03:33;16.10;99.90
27439;DHT22;14887;51.252;7.470;2023-08-17T03:05:59;16.10;99.90
27439;DHT22;14887;51.252;7.470;2023-08-17T03:08:25;16.00;99.90
27439;DHT22;14887;51.252;7.470;2023-08-17T03:10:50;15.90;99.90
27439;DHT22;14887;51.252;7.470;2023-08-17T03:13:16;15.90;99.90
27439;DHT22;14887;51.252;7.470;2023-08-17T03:15:42;16.00;99.90
27439;DHT22;14887;51.252;7.470;2023-08-17T03:18:07;15.80;99.90
27439;DHT22;14887;51.252;7.470;2023-08-17T03:20:33;15.80;99.90
27439;DHT22;14887;51.252;7.470;2023-08-17T03:22:58;15.80;99.90
27439;DHT22;14887;51.252;7.470;2023-08-17T03:25:24;15.80;99.90
27439;DHT22;14887;51.252;7.470;2023-08-17T03:27:49;15.90;99.90
27439;DHT22;14887;51.252;7.470;2023-08-17T03:30:15;15.80;99.90
27439;DHT22;14887;51.252;7.470;2023-08-17T03:32:41;15.70;99.90
27439;DHT22;14887;51.252;7.470;2023-08-17T03:35:07;15.70;99.90
27439;DHT22;14887;51.252;7.470;2023-08-17T03:37:32;15.70;99.90
27439;DHT22;14887;51.252;7.470;2023-08-17T03:39:58;15.50;99.90
27439;DHT22;14887;51.252;7.470;2023-08-17T03:42:26;15.60;99.90
27439;DHT22;14887;51.252;7.470;2023-08-17T03:44:51;15.60;99.90
27439;DHT22;14887;51.252;7.470;2023-08-17T03:47:17;15.50;99.90
27439;DHT22;14887;51.252;7.470;2023-08-17T03:49:43;15.40;99.90
27439;DHT22;14887;51.252;7.470;2023-08-17T03:52:08;15.50;99.90
27439;DHT22;14887;51.252;7.470;2023-08-17T03:54:35;15.60;99.90
27439;DHT22;14887;51.252;7.470;2023-08-17T03:57:01;15.60;99.90
27439;DHT22;14887;51.252;7.470;2023-08-17T03:59:27;15.50;99.90
27439;DHT22;14887;51.252;7.470;2023-08-17T04:01:52;15.60;99.90
27439;DHT22;14887;51.252;7.470;2023-08-17T04:04:18;15.70;99.90
27439;DHT22;14887;51.252;7.470;2023-08-17T04:06:43;15.60;99.90
27439;DHT22;14887;51.252;7.470;2023-08-17T04:09:09;15.70;99.90
27439;DHT22;14887;51.252;7.470;2023-08-17T04:11:35;15.60;99.90
27439;DHT22;14887;51.252;7.470;2023-08-17T04:14:01;15.70;99.90
27439;DHT22;14887;51.252;7.470;2023-08-17T04:16:26;15.70;99.90
27439;DHT22;14887;51.252;7.470;2023-08-17T04:18:52;15.60;99.90
27439;DHT22;14887;51.252;7.470;2023-08-17T04:21:17;15.70;99.90
27439;DHT22;14887;51.252;7.470;2023-08-17T04:23:43;15.60;99.90
27439;DHT22;14887;51.252;7.470;2023-08-17T04:26:09;15.60;99.90
27439;DHT22;14887;51.252;7.470;2023-08-17T04:28:34;15.70;99.90
27439;DHT22;14887;51.252;7.470;2023-08-17T04:31:00;15.60;99.90
27439;DHT22;14887;51.252;7.470;2023-08-17T04:33:25;15.70;99.90
27439;DHT22;14887;51.252;7.470;2023-08-17T04:35:51;15.70;99.90
27439;DHT22;14887;51.252;7.470;2023-08-17T04:38:17;15.80;99.90
27439;DHT22;14887;51.252;7.470;2023-08-17T04:40:42;15.60;99.90
27439;DHT22;14887;51.252;7.470;2023-08-17T04:43:10;15.60;99.90
27439;DHT22;14887;51.252;7.470;2023-08-17T04:45:35;15.60;99.90
27439;DHT22;14887;51.252;7.470;2023-08-17T04:48:01;15.70;99.90
27439;DHT22;14887;51.252;7.470;2023-08-17T04:50:27;15.70;99.90
27439;DHT22;14887;51.252;7.470;2023-08-17T04:52:53;15.60;99.90
27439;DHT22;14887;51.252;7.470;2023-08-17T04:55:19;15.70;99.90
27439;DHT22;14887;51.252;7.470;2023-08-17T04:57:44;15.70;99.90
27439;DHT22;14887;51.252;7.470;2023-08-17T05:00:11;15.70;99.90
27439;DHT22;14887;51.252;7.470;2023-08-17T05:02:38;15.70;99.90
27439;DHT22;14887;51.252;7.470;2023-08-17T05:05:05;15.70;99.90
27439;DHT22;14887;51.252;7.470;2023-08-17T05:07:32;15.80;99.90
27439;DHT22;14887;51.252;7.470;2023-08-17T05:09:58;15.90;99.90
27439;DHT22;14887;51.252;7.470;2023-08-17T05:12:23;15.80;99.90
27439;DHT22;14887;51.252;7.470;2023-08-17T05:14:49;15.80;99.90
27439;DHT22;14887;51.252;7.470;2023-08-17T05:17:14;15.80;99.90
27439;DHT22;14887;51.252;7.470;2023-08-17T05:19:40;15.70;99.90
27439;DHT22;14887;51.252;7.470;2023-08-17T05:22:11;15.80;99.90
27439;DHT22;14887;51.252;7.470;2023-08-17T05:24:37;15.80;99.90
27439;DHT22;14887;51.252;7.470;2023-08-17T05:27:03;15.80;99.90
27439;DHT22;14887;51.252;7.470;2023-08-17T05:29:29;15.80;99.90
27439;DHT22;14887;51.252;7.470;2023-08-17T05:31:54;15.80;99.90
27439;DHT22;14887;51.252;7.470;2023-08-17T05:34:20;15.80;99.90
27439;DHT22;14887;51.252;7.470;2023-08-17T05:36:45;15.80;99.90
27439;DHT22;14887;51.252;7.470;2023-08-17T05:39:11;15.90;99.90
27439;DHT22;14887;51.252;7.470;2023-08-17T05:41:37;15.90;99.90
27439;DHT22;14887;51.252;7.470;2023-08-17T05:44:02;16.10;99.90
27439;DHT22;14887;51.252;7.470;2023-08-17T05:46:28;16.20;99.90
27439;DHT22;14887;51.252;7.470;2023-08-17T05:48:54;16.10;99.90
27439;DHT22;14887;51.252;7.470;2023-08-17T05:51:19;16.00;99.90
27439;DHT22;14887;51.252;7.470;2023-08-17T05:53:45;16.00;99.90
27439;DHT22;14887;51.252;7.470;2023-08-17T05:56:10;16.10;99.90
27439;DHT22;14887;51.252;7.470;2023-08-17T05:58:36;16.30;99.90
27439;DHT22;14887;51.252;7.470;2023-08-17T06:01:06;16.20;99.90
27439;DHT22;14887;51.252;7.470;2023-08-17T06:03:32;16.30;99.90
27439;DHT22;14887;51.252;7.470;2023-08-17T06:05:58;16.20;99.90
27439;DHT22;14887;51.252;7.470;2023-08-17T06:08:24;16.20;99.90
27439;DHT22;14887;51.252;7.470;2023-08-17T06:10:49;16.20;99.90
27439;DHT22;14887;51.252;7.470;2023-08-17T06:13:15;16.30;99.90
27439;DHT22;14887;51.252;7.470;2023-08-17T06:15:40;16.30;99.90
27439;DHT22;14887;51.252;7.470;2023-08-17T06:18:06;16.30;99.90
27439;DHT22;14887;51.252;7.470;2023-08-17T06:20:31;16.50;99.90
27439;DHT22;14887;51.252;7.470;2023-08-17T06:22:57;16.50;99.90
27439;DHT22;14887;51.252;7.470;2023-08-17T06:25:22;16.50;99.90
27439;DHT22;14887;51.252;7.470;2023-08-17T06:27:51;16.40;99.90
27439;DHT22;14887;51.252;7.470;2023-08-17T06:30:17;16.60;99.90
27439;DHT22;14887;51.252;7.470;2023-08-17T06:32:43;16.70;99.90
27439;DHT22;14887;51.252;7.470;2023-08-17T06:35:08;16.80;99.90
27439;DHT22;14887;51.252;7.470;2023-08-17T06:37:34;16.80;99.90
27439;DHT22;14887;51.252;7.470;2023-08-17T06:40:00;16.90;99.90
27439;DHT22;14887;51.252;7.470;2023-08-17T06:42:26;16.90;99.90
27439;DHT22;14887;51.252;7.470;2023-08-17T06:44:52;16.90;99.90
27439;DHT22;14887;51.252;7.470;2023-08-17T06:47:18;16.90;99.90
27439;DHT22;14887;51.252;7.470;2023-08-17T06:49:43;16.90;99.90
27439;DHT22;14887;51.252;7.470;2023-08-17T06:52:09;17.00;99.90
27439;DHT22;14887;51.252;7.470;2023-08-17T06:54:34;17.10;99.90
27439;DHT22;14887;51.252;7.470;2023-08-17T06:57:00;17.10;99.90
27439;DHT22;14887;51.252;7.470;2023-08-17T06:59:26;17.10;99.90
27439;DHT22;14887;51.252;7.470;2023-08-17T07:01:52;17.20;99.90
27439;DHT22;14887;51.252;7.470;2023-08-17T07:04:17;17.30;99.90
27439;DHT22;14887;51.252;7.470;2023-08-17T07:06:43;17.40;99.90
27439;DHT22;14887;51.252;7.470;2023-08-17T07:09:09;17.40;99.90
27439;DHT22;14887;51.252;7.470;2023-08-17T07:11:37;17.60;99.90
27439;DHT22;14887;51.252;7.470;2023-08-17T07:14:03;17.70;99.90
27439;DHT22;14887;51.252;7.470;2023-08-17T07:16:29;17.70;99.90
27439;DHT22;14887;51.252;7.470;2023-08-17T07:18:55;17.70;98.30
27439;DHT22;14887;51.252;7.470;2023-08-17T07:21:20;17.80;93.60
27439;DHT22;14887;51.252;7.470;2023-08-17T07:23:46;17.90;93.50
27439;DHT22;14887;51.252;7.470;2023-08-17T07:26:12;17.90;81.30
27439;DHT22;14887;51.252;7.470;2023-08-17T07:28:37;18.00;70.50
27439;DHT22;14887;51.252;7.470;2023-08-17T07:31:03;18.00;60.70
27439;DHT22;14887;51.252;7.470;2023-08-17T07:33:31;18.00;58.90
27439;DHT22;14887;51.252;7.470;2023-08-17T07:35:56;17.80;43.30
27439;DHT22;14887;51.252;7.470;2023-08-17T07:38:24;17.70;42.50
27439;DHT22;14887;51.252;7.470;2023-08-17T07:40:49;17.90;61.70
27439;DHT22;14887;51.252;7.470;2023-08-17T07:43:15;17.90;56.60
27439;DHT22;14887;51.252;7.470;2023-08-17T07:45:41;17.90;50.10
27439;DHT22;14887;51.252;7.470;2023-08-17T07:48:06;17.90;50.50
27439;DHT22;14887;51.252;7.470;2023-08-17T07:50:32;18.00;48.30
27439;DHT22;14887;51.252;7.470;2023-08-17T07:52:57;18.00;47.10
27439;DHT22;14887;51.252;7.470;2023-08-17T07:55:23;18.10;57.30
27439;DHT22;14887;51.252;7.470;2023-08-17T07:57:49;18.20;53.60
27439;DHT22;14887;51.252;7.470;2023-08-17T08:00:14;18.20;33.30
27439;DHT22;14887;51.252;7.470;2023-08-17T08:02:40;18.20;28.60
27439;DHT22;14887;51.252;7.470;2023-08-17T08:05:06;18.10;39.30
27439;DHT22;14887;51.252;7.470;2023-08-17T08:07:32;18.30;39.10
27439;DHT22;14887;51.252;7.470;2023-08-17T08:09:57;18.40;29.30
27439;DHT22;14887;51.252;7.470;2023-08-17T08:12:23;18.40;15.40
27439;DHT22;14887;51.252;7.470;2023-08-17T08:14:48;18.30;7.10
27439;DHT22;14887;51.252;7.470;2023-08-17T08:17:14;18.40;16.90
27439;DHT22;14887;51.252;7.470;2023-08-17T08:19:40;18.50;10.70
27439;DHT22;14887;51.252;7.470;2023-08-17T08:22:05;18.50;2.50
27439;DHT22;14887;51.252;7.470;2023-08-17T08:24:31;18.60;11.80
27439;DHT22;14887;51.252;7.470;2023-08-17T08:27:00;18.80;3.60
27439;DHT22;14887;51.252;7.470;2023-08-17T08:29:29;18.90;1.00
27439;DHT22;14887;51.252;7.470;2023-08-17T08:31:54;19.20;1.00
27439;DHT22;14887;51.252;7.470;2023-08-17T08:34:20;19.30;1.00
27439;DHT22;14887;51.252;7.470;2023-08-17T08:36:45;19.30;1.00
27439;DHT22;14887;51.252;7.470;2023-08-17T08:39:11;19.40;1.00
27439;DHT22;14887;51.252;7.470;2023-08-17T08:41:38;19.40;1.00
27439;DHT22;14887;51.252;7.470;2023-08-17T08:44:04;19.60;1.00
27439;DHT22;14887;51.252;7.470;2023-08-17T08:46:30;19.60;1.00
27439;DHT22;14887;51.252;7.470;2023-08-17T08:48:58;19.60;1.00
27439;DHT22;14887;51.252;7.470;2023-08-17T08:51:27;19.60;1.00
27439;DHT22;14887;51.252;7.470;2023-08-17T08:54:06;19.80;1.00
27439;DHT22;14887;51.252;7.470;2023-08-17T08:56:37;19.90;1.00
27439;DHT22;14887;51.252;7.470;2023-08-17T08:59:05;20.00;1.00
27439;DHT22;14887;51.252;7.470;2023-08-17T09:01:31;20.00;1.00
27439;DHT22;14887;51.252;7.470;2023-08-17T09:04:00;20.20;1.00
27439;DHT22;14887;51.252;7.470;2023-08-17T09:06:27;20.40;1.00
27439;DHT22;14887;51.252;7.470;2023-08-17T09:08:55;20.40;1.00
27439;DHT22;14887;51.252;7.470;2023-08-17T09:11:22;20.50;1.00
27439;DHT22;14887;51.252;7.470;2023-08-17T09:13:47;20.40;1.00
27439;DHT22;14887;51.252;7.470;2023-08-17T09:16:13;20.40;1.00
27439;DHT22;14887;51.252;7.470;2023-08-17T09:18:38;20.50;1.00
27439;DHT22;14887;51.252;7.470;2023-08-17T09:21:04;20.50;1.00
27439;DHT22;14887;51.252;7.470;2023-08-17T09:23:30;20.60;1.00
27439;DHT22;14887;51.252;7.470;2023-08-17T09:25:56;20.60;1.00
27439;DHT22;14887;51.252;7.470;2023-08-17T09:28:24;20.50;1.00
27439;DHT22;14887;51.252;7.470;2023-08-17T09:30:54;20.50;1.00
27439;DHT22;14887;51.252;7.470;2023-08-17T09:33:25;20.30;1.00
27439;DHT22;14887;51.252;7.470;2023-08-17T09:35:51;20.30;1.00
27439;DHT22;14887;51.252;7.470;2023-08-17T09:38:18;20.40;1.00
27439;DHT22;14887;51.252;7.470;2023-08-17T09:40:44;20.60;1.00
27439;DHT22;14887;51.252;7.470;2023-08-17T09:43:10;20.80;1.00
27439;DHT22;14887;51.252;7.470;2023-08-17T09:45:37;20.90;1.00
27439;DHT22;14887;51.252;7.470;2023-08-17T09:48:03;21.00;1.00
27439;DHT22;14887;51.252;7.470;2023-08-17T09:50:29;20.90;1.00
27439;DHT22;14887;51.252;7.470;2023-08-17T09:52:55;20.70;1.00
27439;DHT22;14887;51.252;7.470;2023-08-17T09:55:24;20.60;1.00
27439;DHT22;14887;51.252;7.470;2023-08-17T09:57:50;20.60;1.00
27439;DHT22;14887;51.252;7.470;2023-08-17T10:00:20;20.60;1.00
27439;DHT22;14887;51.252;7.470;2023-08-17T10:02:49;20.50;1.00
27439;DHT22;14887;51.252;7.470;2023-08-17T10:05:18;20.40;1.00
27439;DHT22;14887;51.252;7.470;2023-08-17T10:07:47;20.20;1.00
27439;DHT22;14887;51.252;7.470;2023-08-17T10:10:16;20.30;1.00
27439;DHT22;14887;51.252;7.470;2023-08-17T10:12:49;20.40;1.00
27439;DHT22;14887;51.252;7.470;2023-08-17T10:15:18;20.10;1.00
27439;DHT22;14887;51.252;7.470;2023-08-17T10:18:00;20.20;1.00
27439;DHT22;14887;51.252;7.470;2023-08-17T10:20:30;20.20;1.00
27439;DHT22;14887;51.252;7.470;2023-08-17T10:23:10;20.50;1.00
27439;DHT22;14887;51.252;7.470;2023-08-17T10:25:37;20.60;1.00
27439;DHT22;14887;51.252;7.470;2023-08-17T10:28:04;20.60;1.00
27439;DHT22;14887;51.252;7.470;2023-08-17T10:30:30;20.70;1.00
27439;DHT22;14887;51.252;7.470;2023-08-17T10:32:56;20.50;1.00
27439;DHT22;14887;51.252;7.470;2023-08-17T10:35:22;20.60;1.00
27439;DHT22;14887;51.252;7.470;2023-08-17T10:37:48;20.60;1.00
27439;DHT22;14887;51.252;7.470;2023-08-17T10:40:14;20.70;1.00
27439;DHT22;14887;51.252;7.470;2023-08-17T10:42:40;20.50;1.00
27439;DHT22;14887;51.252;7.470;2023-08-17T10:45:28;20.50;1.00
27439;DHT22;14887;51.252;7.470;2023-08-17T10:48:26;20.50;1.00
27439;DHT22;14887;51.252;7.470;2023-08-17T10:51:03;20.50;1.00
27439;DHT22;14887;51.252;7.470;2023-08-17T10:53:34;20.40;1.00
27439;DHT22;14887;51.252;7.470;2023-08-17T10:56:00;20.30;1.00
27439;DHT22;14887;51.252;7.470;2023-08-17T10:58:31;20.40;1.00
27439;DHT22;14887;51.252;7.470;2023-08-17T11:00:58;20.30;1.00
27439;DHT22;14887;51.252;7.470;2023-08-17T11:03:23;20.30;1.00
27439;DHT22;14887;51.252;7.470;2023-08-17T11:05:51;20.40;1.00
27439;DHT22;14887;51.252;7.470;2023-08-17T11:11:06;20.30;1.00
27439;DHT22;14887;51.252;7.470;2023-08-17T11:13:34;20.20;1.00
27439;DHT22;14887;51.252;7.470;2023-08-17T11:16:01;20.20;1.00
27439;DHT22;14887;51.252;7.470;2023-08-17T11:18:27;20.30;1.00
27439;DHT22;14887;51.252;7.470;2023-08-17T11:20:53;20.50;1.00
27439;DHT22;14887;51.252;7.470;2023-08-17T11:23:19;20.60;1.00
27439;DHT22;14887;51.252;7.470;2023-08-17T11:25:46;20.90;1.00
27439;DHT22;14887;51.252;7.470;2023-08-17T11:28:12;21.00;1.00
27439;DHT22;14887;51.252;7.470;2023-08-17T11:30:40;21.10;1.00
27439;DHT22;14887;51.252;7.470;2023-08-17T11:33:06;21.30;1.00
27439;DHT22;14887;51.252;7.470;2023-08-17T11:35:32;21.50;1.00
27439;DHT22;14887;51.252;7.470;2023-08-17T11:37:58;21.50;1.00
27439;DHT22;14887;51.252;7.470;2023-08-17T11:40:25;21.60;1.00
27439;DHT22;14887;51.252;7.470;2023-08-17T11:42:51;21.40;99.90
27439;DHT22;14887;51.252;7.470;2023-08-17T11:45:17;21.20;1.00
27439;DHT22;14887;51.252;7.470;2023-08-17T11:47:43;21.30;1.00
27439;DHT22;14887;51.252;7.470;2023-08-17T11:50:12;21.30;1.00
27439;DHT22;14887;51.252;7.470;2023-08-17T11:52:38;21.30;1.00
27439;DHT22;14887;51.252;7.470;2023-08-17T11:55:08;21.50;1.00
27439;DHT22;14887;51.252;7.470;2023-08-17T11:57:36;21.50;1.00
27439;DHT22;14887;51.252;7.470;2023-08-17T12:00:03;21.60;99.90
27439;DHT22;14887;51.252;7.470;2023-08-17T12:02:31;21.80;1.00
27439;DHT22;14887;51.252;7.470;2023-08-17T12:04:57;21.80;99.90
27439;DHT22;14887;51.252;7.470;2023-08-17T12:07:26;22.10;99.90
27439;DHT22;14887;51.252;7.470;2023-08-17T12:09:52;22.10;99.90
27439;DHT22;14887;51.252;7.470;2023-08-17T12:12:19;22.40;99.90
27439;DHT22;14887;51.252;7.470;2023-08-17T12:14:47;22.60;99.90
27439;DHT22;14887;51.252;7.470;2023-08-17T12:17:20;23.00;99.90
27439;DHT22;14887;51.252;7.470;2023-08-17T12:19:49;23.60;63.00
27439;DHT22;14887;51.252;7.470;2023-08-17T12:22:16;23.80;1.00
27439;DHT22;14887;51.252;7.470;2023-08-17T12:24:42;23.60;1.00
27439;DHT22;14887;51.252;7.470;2023-08-17T12:27:09;23.60;1.00
27439;DHT22;14887;51.252;7.470;2023-08-17T12:29:55;23.40;99.90
27439;DHT22;14887;51.252;7.470;2023-08-17T12:32:21;23.20;25.80
27439;DHT22;14887;51.252;7.470;2023-08-17T12:34:47;23.10;22.10
27439;DHT22;14887;51.252;7.470;2023-08-17T12:37:19;22.70;95.50
27439;DHT22;14887;51.252;7.470;2023-08-17T12:39:45;22.50;99.90
27439;DHT22;14887;51.252;7.470;2023-08-17T12:42:11;22.20;99.90
27439;DHT22;14887;51.252;7.470;2023-08-17T12:44:37;22.00;99.90
27439;DHT22;14887;51.252;7.470;2023-08-17T12:47:02;22.00;99.90
27439;DHT22;14887;51.252;7.470;2023-08-17T12:49:28;22.00;99.90
27439;DHT22;14887;51.252;7.470;2023-08-17T12:51:53;21.80;99.90
27439;DHT22;14887;51.252;7.470;2023-08-17T12:54:19;21.90;99.90
27439;DHT22;14887;51.252;7.470;2023-08-17T12:56:45;22.00;99.90
27439;DHT22;14887;51.252;7.470;2023-08-17T12:59:10;21.90;99.90
27439;DHT22;14887;51.252;7.470;2023-08-17T13:01:36;21.80;99.90
27439;DHT22;14887;51.252;7.470;2023-08-17T13:04:02;21.70;99.90
27439;DHT22;14887;51.252;7.470;2023-08-17T13:06:27;21.50;99.90
27439;DHT22;14887;51.252;7.470;2023-08-17T13:08:54;21.50;99.90
27439;DHT22;14887;51.252;7.470;2023-08-17T13:11:20;21.70;99.90
27439;DHT22;14887;51.252;7.470;2023-08-17T13:13:45;22.20;99.90
27439;DHT22;14887;51.252;7.470;2023-08-17T13:16:11;23.00;99.90
27439;DHT22;14887;51.252;7.470;2023-08-17T13:18:37;23.80;99.90
27439;DHT22;14887;51.252;7.470;2023-08-17T13:21:03;24.10;1.00
27439;DHT22;14887;51.252;7.470;2023-08-17T13:23:28;24.30;1.00
27439;DHT22;14887;51.252;7.470;2023-08-17T13:25:54;24.20;47.30
27439;DHT22;14887;51.252;7.470;2023-08-17T13:28:20;24.70;99.90
27439;DHT22;14887;51.252;7.470;2023-08-17T13:30:45;24.90;1.00
27439;DHT22;14887;51.252;7.470;2023-08-17T13:33:12;24.50;99.90
27439;DHT22;14887;51.252;7.470;2023-08-17T13:35:38;24.20;1.00
27439;DHT22;14887;51.252;7.470;2023-08-17T13:38:04;24.30;1.00
27439;DHT22;14887;51.252;7.470;2023-08-17T13:40:31;24.80;99.90
27439;DHT22;14887;51.252;7.470;2023-08-17T13:42:56;25.00;1.00
27439;DHT22;14887;51.252;7.470;2023-08-17T13:45:23;24.80;52.80
27439;DHT22;14887;51.252;7.470;2023-08-17T13:47:49;24.60;88.30
27439;DHT22;14887;51.252;7.470;2023-08-17T13:50:14;24.30;1.00
27439;DHT22;14887;51.252;7.470;2023-08-17T13:52:40;23.90;41.00
27439;DHT22;14887;51.252;7.470;2023-08-17T13:55:06;23.60;99.90
27439;DHT22;14887;51.252;7.470;2023-08-17T13:57:32;23.30;99.90
27439;DHT22;14887;51.252;7.470;2023-08-17T13:59:57;22.80;1.00
27439;DHT22;14887;51.252;7.470;2023-08-17T14:02:23;22.60;1.00
27439;DHT22;14887;51.252;7.470;2023-08-17T14:04:48;22.50;1.00
27439;DHT22;14887;51.252;7.470;2023-08-17T14:07:14;22.60;1.00
27439;DHT22;14887;51.252;7.470;2023-08-17T14:09:39;22.50;1.00
27439;DHT22;14887;51.252;7.470;2023-08-17T14:12:05;22.40;99.90
27439;DHT22;14887;51.252;7.470;2023-08-17T14:14:31;22.50;1.00
27439;DHT22;14887;51.252;7.470;2023-08-17T14:16:58;22.80;1.00
27439;DHT22;14887;51.252;7.470;2023-08-17T14:19:24;23.10;1.00
27439;DHT22;14887;51.252;7.470;2023-08-17T14:21:50;23.10;99.90
27439;DHT22;14887;51.252;7.470;2023-08-17T14:24:16;23.00;99.90
27439;DHT22;14887;51.252;7.470;2023-08-17T14:26:42;22.80;1.00
27439;DHT22;14887;51.252;7.470;2023-08-17T14:29:07;22.60;1.00
27439;DHT22;14887;51.252;7.470;2023-08-17T14:31:33;22.30;99.90
27439;DHT22;14887;51.252;7.470;2023-08-17T14:33:58;21.90;1.00
27439;DHT22;14887;51.252;7.470;2023-08-17T14:36:24;21.70;99.90
27439;DHT22;14887;51.252;7.470;2023-08-17T14:38:49;21.80;99.90
27439;DHT22;14887;51.252;7.470;2023-08-17T14:41:15;22.00;1.00
27439;DHT22;14887;51.252;7.470;2023-08-17T14:43:40;21.90;99.90
27439;DHT22;14887;51.252;7.470;2023-08-17T14:46:06;21.80;1.00
27439;DHT22;14887;51.252;7.470;2023-08-17T14:48:31;21.70;99.90
27439;DHT22;14887;51.252;7.470;2023-08-17T14:50:57;21.70;1.00
27439;DHT22;14887;51.252;7.470;2023-08-17T14:53:23;21.60;99.90
27439;DHT22;14887;51.252;7.470;2023-08-17T14:55:48;21.70;99.90
27439;DHT22;14887;51.252;7.470;2023-08-17T14:58:14;21.90;99.90
27439;DHT22;14887;51.252;7.470;2023-08-17T15:00:40;22.20;1.00
27439;DHT22;14887;51.252;7.470;2023-08-17T15:03:06;22.20;99.90
27439;DHT22;14887;51.252;7.470;2023-08-17T15:05:31;22.30;1.00
27439;DHT22;14887;51.252;7.470;2023-08-17T15:08:01;22.20;1.00
27439;DHT22;14887;51.252;7.470;2023-08-17T15:10:26;22.20;1.00
27439;DHT22;14887;51.252;7.470;2023-08-17T15:12:52;22.20;1.00
27439;DHT22;14887;51.252;7.470;2023-08-17T15:15:18;22.20;1.00
27439;DHT22;14887;51.252;7.470;2023-08-17T15:17:43;22.30;99.90
27439;DHT22;14887;51.252;7.470;2023-08-17T15:20:09;22.30;1.00
27439;DHT22;14887;51.252;7.470;2023-08-17T15:22:35;21.90;99.90
27439;DHT22;14887;51.252;7.470;2023-08-17T15:25:00;21.50;1.00
27439;DHT22;14887;51.252;7.470;2023-08-17T15:27:26;21.20;99.90
27439;DHT22;14887;51.252;7.470;2023-08-17T15:29:52;21.10;1.00
27439;DHT22;14887;51.252;7.470;2023-08-17T15:32:17;21.30;99.90
27439;DHT22;14887;51.252;7.470;2023-08-17T15:34:43;21.60;99.90
27439;DHT22;14887;51.252;7.470;2023-08-17T15:37:08;22.20;99.90
27439;DHT22;14887;51.252;7.470;2023-08-17T15:39:34;22.20;1.00